This is the latest recevied weather packets stored in our database for station/object AI4ZL. If no packets are shown the sender has not sent any weather packets the latest 10 day(s).
| Time | Temp. | Humidity | Pressure | Rain* | Wind** | Luminosity | Snow |
|---|---|---|---|---|---|---|---|
| 1777589450 | 20° C | 42% | 1016.6 hPa | 0 mm | - | 193 W/m² | - |
| 1777584619 | 20.56° C | 39% | 1016.9 hPa | 0 mm | - | 438 W/m² | - |
| 1777583428 | 19.44° C | 40% | 1017.6 hPa | 0 mm | - | 529 W/m² | - |
| 1777582838 | 20.56° C | 39% | 1017.4 hPa | 0 mm | - | 406 W/m² | - |
| 1777581031 | 18.89° C | 42% | 1017.7 hPa | 0 mm | - | 560 W/m² | - |
| 1777571426 | 18.33° C | 46% | 1019.3 hPa | 0 mm | - | 745 W/m² | - |
| 1777570219 | 17.78° C | 46% | 1019.7 hPa | 0 mm | - | 584 W/m² | - |
| 1777566652 | 17.78° C | 45% | 1020 hPa | 0 mm | - | 761 W/m² | - |
| 1777563623 | 16.67° C | 45% | 1020.2 hPa | 0 mm | - | 777 W/m² | - |
| 1777560630 | 16.11° C | 50% | 1019.9 hPa | 0 mm | - | 611 W/m² | - |
| 1777558233 | 14.44° C | 58% | 1019.8 hPa | 0 mm | - | 546 W/m² | - |
| 1777557621 | 14.44° C | 62% | 1020.2 hPa | 0 mm | - | 402 W/m² | - |
| 1777557027 | 14.44° C | 60% | 1020.2 hPa | 0 mm | - | 432 W/m² | - |
| 1777546231 | 7.78° C | 86% | 1019.1 hPa | 0 mm | - | 0 W/m² | - |
| 1777543833 | 8.33° C | 81% | 1018.2 hPa | 0 mm | - | 0 W/m² | - |
| 1777540824 | 8.89° C | 84% | 1018.2 hPa | 0 mm | - | 0 W/m² | - |
| 1777540230 | 8.89° C | 84% | 1018.2 hPa | 0 mm | - | 0 W/m² | - |
| 1777538427 | 8.89° C | 86% | 1018.1 hPa | 0 mm | - | 0 W/m² | - |
| 1777537832 | 9.44° C | 85% | 1018 hPa | 0 mm | - | 0 W/m² | - |
| 1777531235 | 11.11° C | 77% | 1018.3 hPa | 0 mm | - | 0 W/m² | - |
| 1777530641 | 11.67° C | 76% | 1018.3 hPa | 0 mm | - | 0 W/m² | - |
| 1777522225 | 13.89° C | 71% | 1018 hPa | 0 mm | - | 0 W/m² | - |
| 1777521630 | 13.89° C | 70% | 1017.9 hPa | 0 mm | - | 0 W/m² | - |
| 1777516819 | 15° C | 67% | 1018.1 hPa | 0 mm | - | 0 W/m² | - |
| 1777515669 | 15° C | 68% | 1017.7 hPa | 0 mm | - | 0 W/m² | - |
* Rain latest hour (hover to see other rain measurements)
** Current wind speed in m/s (hover to see current wind gust speed)